createdAt,value
2022-09-21T00:01:20.657Z,8.4
2022-09-21T00:03:23.693Z,8.4
2022-09-21T00:05:23.574Z,8.3
2022-09-21T00:07:23.471Z,8.3
2022-09-21T00:09:23.343Z,8.3
2022-09-21T00:11:23.052Z,8.3
2022-09-21T00:13:22.830Z,8.3
2022-09-21T00:15:22.616Z,8.3
2022-09-21T00:17:25.877Z,8.2
2022-09-21T00:19:25.741Z,8.3
2022-09-21T00:21:25.626Z,8.2
2022-09-21T00:26:26.926Z,8.2
2022-09-21T00:28:26.775Z,8.1
2022-09-21T00:32:29.914Z,8.2
2022-09-21T00:36:29.472Z,8.1
2022-09-21T00:38:29.287Z,8.1
2022-09-21T00:44:32.124Z,8
2022-09-21T00:46:31.896Z,8
2022-09-21T00:48:31.762Z,8
2022-09-21T00:50:31.560Z,7.9
2022-09-21T00:52:31.425Z,7.9
2022-09-21T00:54:31.212Z,7.9
2022-09-21T00:56:31.012Z,7.9
2022-09-21T00:58:34.366Z,7.8
2022-09-21T01:00:34.264Z,7.8
2022-09-21T01:02:34.134Z,7.8
2022-09-21T01:04:34.009Z,7.7
2022-09-21T01:06:33.886Z,7.7
2022-09-21T01:10:33.528Z,7.6
2022-09-21T01:12:36.798Z,7.5
2022-09-21T01:14:36.615Z,7.5
2022-09-21T01:16:36.572Z,7.5
2022-09-21T01:18:58.761Z,7.3
2022-09-21T01:20:58.579Z,7.3
2022-09-21T01:22:58.449Z,7.3
2022-09-21T01:25:01.836Z,7.2
2022-09-21T01:27:01.615Z,7.1
2022-09-21T01:29:01.503Z,7.1
2022-09-21T01:31:01.360Z,7.1
2022-09-21T01:33:01.263Z,7.1
2022-09-21T01:35:01.135Z,7.1
2022-09-21T01:37:01.021Z,7
2022-09-21T01:39:04.426Z,6.9
2022-09-21T01:41:04.327Z,6.9
2022-09-21T01:43:04.194Z,6.8
2022-09-21T01:45:04.084Z,6.9
2022-09-21T01:47:03.968Z,6.8
2022-09-21T01:49:03.824Z,6.7
2022-09-21T01:51:03.657Z,6.7
2022-09-21T01:53:07.061Z,6.7
2022-09-21T01:55:06.968Z,6.7
2022-09-21T01:57:06.859Z,6.7
2022-09-21T02:03:06.584Z,6.6
2022-09-21T02:05:06.453Z,6.5
2022-09-21T02:07:09.763Z,6.5
2022-09-21T02:09:09.669Z,6.5
2022-09-21T02:11:09.570Z,6.4
2022-09-21T02:12:14.615Z,6.5
2022-09-21T02:14:11.134Z,6.5
2022-09-21T02:16:10.975Z,6.4
2022-09-21T02:18:10.882Z,6.4
2022-09-21T02:20:14.278Z,6.4
2022-09-21T02:22:14.182Z,6.3
2022-09-21T02:24:14.097Z,6.3
2022-09-21T02:26:14.180Z,6.2
2022-09-21T02:28:13.918Z,6.2
2022-09-21T02:30:13.835Z,6.3
2022-09-21T02:34:17.142Z,6.2
2022-09-21T02:36:17.194Z,6.2
2022-09-21T02:38:16.957Z,6.1
2022-09-21T02:40:16.876Z,6.1
2022-09-21T02:42:16.785Z,6.1
2022-09-21T02:44:16.704Z,6.1
2022-09-21T02:46:16.721Z,6
2022-09-21T02:48:20.028Z,6
2022-09-21T02:50:19.948Z,5.9
2022-09-21T02:52:19.868Z,6
2022-09-21T02:54:19.755Z,6
2022-09-21T02:56:19.816Z,6
2022-09-21T02:58:19.592Z,6
2022-09-21T03:00:19.504Z,6
2022-09-21T03:02:23.725Z,5.9
2022-09-21T03:04:22.831Z,5.9
2022-09-21T03:06:26.049Z,5.8
2022-09-21T03:07:24.447Z,5.9
2022-09-21T03:11:24.265Z,5.8
2022-09-21T03:13:24.197Z,5.8
2022-09-21T03:15:27.586Z,5.7
2022-09-21T03:17:27.509Z,5.7
2022-09-21T03:19:27.432Z,5.7
2022-09-21T03:21:27.347Z,5.6
2022-09-21T03:23:27.245Z,5.6
2022-09-21T03:25:27.189Z,5.6
2022-09-21T03:27:27.108Z,5.5
2022-09-21T03:29:30.519Z,5.5
2022-09-21T03:33:30.348Z,5.4
2022-09-21T03:35:30.265Z,5.5
2022-09-21T03:37:30.198Z,5.4
2022-09-21T03:39:30.110Z,5.5
2022-09-21T03:41:30.039Z,5.4
2022-09-21T03:43:33.450Z,5.4
2022-09-21T03:45:34.967Z,5.4
2022-09-21T03:47:34.815Z,5.4
2022-09-21T03:49:34.764Z,5.4
2022-09-21T03:51:34.691Z,5.3
2022-09-21T03:53:34.597Z,5.4
2022-09-21T03:55:34.537Z,5.3
2022-09-21T03:57:37.975Z,5.4
2022-09-21T03:59:37.913Z,5.3
2022-09-21T04:01:37.873Z,5.3
2022-09-21T04:02:39.551Z,5.3
2022-09-21T04:04:39.452Z,5.1
2022-09-21T04:06:39.352Z,5.2
2022-09-21T04:08:39.277Z,5.3
2022-09-21T04:10:42.748Z,5.2
2022-09-21T04:12:42.659Z,5.1
2022-09-21T04:14:42.574Z,5.1
2022-09-21T04:16:42.493Z,5.1
2022-09-21T04:18:42.434Z,5
2022-09-21T04:22:43.691Z,5
2022-09-21T04:24:45.743Z,5.1
2022-09-21T04:26:45.672Z,5
2022-09-21T04:28:45.603Z,5
2022-09-21T04:30:45.556Z,5
2022-09-21T04:32:45.475Z,4.9
2022-09-21T04:36:45.292Z,4.9
2022-09-21T04:42:48.591Z,4.9
2022-09-21T04:44:48.536Z,4.9
2022-09-21T04:46:48.476Z,4.9
2022-09-21T04:48:48.398Z,4.9
2022-09-21T04:50:48.358Z,4.8
2022-09-21T04:52:51.776Z,4.9
2022-09-21T04:54:51.722Z,4.8
2022-09-21T04:56:51.653Z,4.9
2022-09-21T04:59:07.872Z,4.8
2022-09-21T05:01:07.912Z,4.9
2022-09-21T05:03:07.723Z,4.9
2022-09-21T05:05:11.137Z,4.7
2022-09-21T05:07:11.066Z,4.8
2022-09-21T05:09:11.007Z,4.7
2022-09-21T05:11:10.909Z,4.7
2022-09-21T05:13:10.859Z,4.7
2022-09-21T05:15:10.757Z,4.6
2022-09-21T05:17:10.718Z,4.8
2022-09-21T05:19:14.123Z,4.8
2022-09-21T05:21:14.088Z,4.8
2022-09-21T05:23:16.787Z,4.8
2022-09-21T05:25:13.955Z,4.8
2022-09-21T05:27:13.884Z,4.8
2022-09-21T05:29:13.820Z,4.7
2022-09-21T05:31:17.919Z,4.8
2022-09-21T05:33:17.210Z,4.8
2022-09-21T05:35:17.159Z,4.8
2022-09-21T05:37:17.099Z,4.8
2022-09-21T05:39:17.025Z,4.9
2022-09-21T05:41:16.965Z,4.9
2022-09-21T05:43:16.860Z,4.9
2022-09-21T05:45:16.940Z,5
2022-09-21T05:47:20.239Z,5
2022-09-21T05:49:20.157Z,5
2022-09-21T05:51:20.110Z,5
2022-09-21T05:52:21.796Z,5
2022-09-21T05:54:21.760Z,5
2022-09-21T05:56:21.659Z,5.1
2022-09-21T05:58:21.594Z,5.1
2022-09-21T06:00:25.025Z,5.1
2022-09-21T06:02:25.006Z,5.1
2022-09-21T06:04:24.898Z,5.1
2022-09-21T06:06:24.830Z,5.1
2022-09-21T06:08:24.790Z,5.2
2022-09-21T06:10:24.719Z,5.2
2022-09-21T06:12:24.668Z,5.3
2022-09-21T06:20:27.939Z,5.5
2022-09-21T06:22:27.818Z,5.6
2022-09-21T06:26:27.701Z,5.7
2022-09-21T06:28:31.114Z,5.8
2022-09-21T06:30:31.117Z,5.8
2022-09-21T06:32:30.963Z,5.9
2022-09-21T06:34:30.911Z,6
2022-09-21T06:36:30.863Z,6.1
2022-09-21T06:38:30.801Z,6.2
2022-09-21T06:40:30.822Z,6.3
2022-09-21T06:42:34.160Z,6.4
2022-09-21T06:46:34.026Z,6.5
2022-09-21T06:47:35.732Z,6.6
2022-09-21T06:49:38.139Z,6.7
2022-09-21T06:53:35.514Z,6.8
2022-09-21T06:55:38.926Z,7
2022-09-21T07:01:38.730Z,7.3
2022-09-21T07:03:38.636Z,7.4
2022-09-21T07:05:38.908Z,7.5
2022-09-21T07:07:38.481Z,7.6
2022-09-21T07:10:06.325Z,7.8
2022-09-21T07:11:41.804Z,7.8
2022-09-21T07:13:41.744Z,8
2022-09-21T07:15:41.646Z,8.2
2022-09-21T07:17:41.570Z,8.3
2022-09-21T07:19:41.470Z,8.4
2022-09-21T07:21:41.591Z,8.6
2022-09-21T07:23:44.808Z,8.7
2022-09-21T07:25:44.685Z,8.8
2022-09-21T07:27:44.596Z,8.8
2022-09-21T07:29:44.484Z,9
2022-09-21T07:35:44.168Z,10.6
2022-09-21T07:37:47.556Z,10.5
2022-09-21T07:39:47.458Z,10.5
2022-09-21T07:41:47.330Z,10.6
2022-09-21T07:42:48.945Z,10.5
2022-09-21T07:44:48.867Z,10.8
2022-09-21T07:46:48.739Z,10.9
2022-09-21T07:48:48.691Z,10.5
2022-09-21T07:50:51.990Z,10.5
2022-09-21T07:52:51.781Z,10.5
2022-09-21T07:54:51.675Z,10.7
2022-09-21T07:56:51.537Z,10.8
2022-09-21T07:58:51.317Z,10.9
2022-09-21T08:00:51.222Z,11
2022-09-21T08:02:51.124Z,11.1
2022-09-21T08:04:54.311Z,11.4
2022-09-21T08:06:54.079Z,11.4
2022-09-21T08:08:57.413Z,11.8
2022-09-21T08:10:53.654Z,11.8
2022-09-21T08:18:56.168Z,12
2022-09-21T08:20:56.024Z,12.1
2022-09-21T08:22:55.864Z,12.2
2022-09-21T08:24:55.623Z,12.2
2022-09-21T08:26:55.343Z,12.3
2022-09-21T08:28:55.183Z,12.4
2022-09-21T08:30:54.853Z,12.4
2022-09-21T08:32:58.089Z,12.4
2022-09-21T08:36:57.541Z,12.7
2022-09-21T08:41:19.071Z,12.8
2022-09-21T08:43:18.805Z,12.9
2022-09-21T08:45:22.101Z,12.8
2022-09-21T08:57:20.305Z,13.4
2022-09-21T08:59:23.399Z,13.3
2022-09-21T09:01:23.227Z,13.4
2022-09-21T09:03:22.831Z,13.5
2022-09-21T09:05:22.542Z,13.7
2022-09-21T09:07:22.257Z,13.8
2022-09-21T09:09:21.985Z,13.9
2022-09-21T09:11:21.679Z,14.1
2022-09-21T09:13:24.772Z,13.8
2022-09-21T09:15:24.616Z,13.8
2022-09-21T09:17:24.154Z,14
2022-09-21T09:19:23.870Z,14.1
2022-09-21T09:21:29.756Z,14.2
2022-09-21T09:23:23.230Z,14.4
2022-09-21T09:25:22.915Z,14.6
2022-09-21T09:27:26.007Z,14.5
2022-09-21T09:29:25.674Z,14.5
2022-09-21T09:31:26.970Z,14.5
2022-09-21T09:32:28.456Z,14.5
2022-09-21T09:34:28.110Z,14.7
2022-09-21T09:36:53.876Z,14.9
2022-09-21T09:46:29.384Z,15.9
2022-09-21T09:48:28.863Z,17
2022-09-21T09:52:27.957Z,20
2022-09-21T09:56:30.429Z,21.4
2022-09-21T09:58:29.922Z,21.7
2022-09-21T10:00:29.384Z,21.2
2022-09-21T10:02:28.841Z,21.4
2022-09-21T10:04:28.313Z,21.2
2022-09-21T10:06:27.664Z,20.9
2022-09-21T10:08:30.396Z,19.8
2022-09-21T10:10:29.701Z,20.1
2022-09-21T10:12:28.930Z,20.8
2022-09-21T10:16:27.442Z,20.9
2022-09-21T10:18:26.599Z,20.8
2022-09-21T10:20:25.806Z,20.9
2022-09-21T10:24:27.522Z,21.5
2022-09-21T10:26:26.683Z,21.6
2022-09-21T10:27:27.971Z,20.6
2022-09-21T10:29:27.111Z,20.4
2022-09-21T10:31:26.290Z,21
2022-09-21T10:33:25.401Z,20.8
2022-09-21T10:35:27.892Z,20.9
2022-09-21T10:37:27.013Z,21.1
2022-09-21T10:39:26.118Z,21.3
2022-09-21T10:41:25.244Z,21
2022-09-21T10:43:24.323Z,20.9
2022-09-21T10:45:23.567Z,20.8
2022-09-21T10:47:22.535Z,20.9
2022-09-21T10:49:24.991Z,21.5
2022-09-21T10:51:24.081Z,21.1
2022-09-21T10:53:23.129Z,21.6
2022-09-21T10:55:22.214Z,22.2
2022-09-21T10:57:21.254Z,21.9
2022-09-21T10:59:20.311Z,21.3
2022-09-21T11:01:19.433Z,21.6
2022-09-21T11:03:21.767Z,22
2022-09-21T11:05:20.799Z,21.6
2022-09-21T11:07:19.811Z,21.4
2022-09-21T11:09:18.827Z,20.6
2022-09-21T11:11:17.848Z,20.6
2022-09-21T11:13:16.872Z,20.7
2022-09-21T11:15:15.860Z,20.7
2022-09-21T11:17:18.250Z,18.9
2022-09-21T11:19:17.243Z,18.7
2022-09-21T11:21:16.267Z,19.5
2022-09-21T11:22:17.462Z,19.5
2022-09-21T11:24:16.488Z,19.5
2022-09-21T11:26:15.490Z,19.2
2022-09-21T11:30:16.963Z,19.1
2022-09-21T11:32:15.983Z,19.4
2022-09-21T11:34:15.038Z,20.3
2022-09-21T11:36:14.080Z,20.2
2022-09-21T11:38:13.111Z,20.2
2022-09-21T11:40:12.223Z,19.4
2022-09-21T11:44:17.084Z,17.2
2022-09-21T11:46:12.690Z,16.9
2022-09-21T11:52:09.973Z,18
2022-09-21T11:54:09.072Z,17.5
2022-09-21T11:56:08.223Z,17.7
2022-09-21T11:58:10.726Z,18
2022-09-21T12:04:08.214Z,19.2
2022-09-21T12:06:07.379Z,19.5
2022-09-21T12:08:06.537Z,20
2022-09-21T12:10:08.846Z,19.9
2022-09-21T12:12:08.241Z,20
2022-09-21T12:14:07.389Z,20
2022-09-21T12:16:06.527Z,20.4
2022-09-21T12:18:27.653Z,20.9
2022-09-21T12:20:26.780Z,21
2022-09-21T12:22:25.893Z,21.4
2022-09-21T12:24:32.052Z,21.6
2022-09-21T12:26:27.506Z,21.5
2022-09-21T12:28:26.615Z,21.6
2022-09-21T12:30:25.811Z,21.7
2022-09-21T12:32:24.815Z,21.4
2022-09-21T12:34:23.906Z,21.2
2022-09-21T12:36:22.996Z,21.6
2022-09-21T12:38:25.512Z,21.9
2022-09-21T12:40:24.573Z,21.7
2022-09-21T12:42:23.625Z,21.3
2022-09-21T12:44:22.713Z,21.4
2022-09-21T12:52:22.392Z,23.2
2022-09-21T13:02:18.021Z,22.7
2022-09-21T13:10:17.412Z,24.7
2022-09-21T13:11:18.617Z,24.3
2022-09-21T13:13:17.714Z,24.4
2022-09-21T13:15:16.772Z,24
2022-09-21T13:17:15.854Z,24.6
2022-09-21T13:19:18.303Z,23.7
2022-09-21T13:21:17.363Z,23.4
2022-09-21T13:23:16.425Z,23.8
2022-09-21T13:25:15.523Z,24.6
2022-09-21T13:27:14.575Z,25.6
2022-09-21T13:29:13.674Z,25.8
2022-09-21T13:31:36.734Z,25.3
2022-09-21T13:37:13.359Z,25.6
2022-09-21T13:39:12.436Z,25.5
2022-09-21T13:41:13.244Z,25.2
2022-09-21T13:43:10.589Z,24.4
2022-09-21T13:45:09.675Z,24.5
2022-09-21T13:47:12.162Z,25.3
2022-09-21T13:49:11.330Z,25.2
2022-09-21T13:51:10.323Z,24.8
2022-09-21T13:53:52.098Z,25.3
2022-09-21T13:55:08.557Z,26.2
2022-09-21T13:57:09.341Z,26.5
2022-09-21T13:59:06.779Z,26.5
2022-09-21T14:03:08.624Z,25.9
2022-09-21T14:06:08.945Z,26
2022-09-21T14:08:08.072Z,25.6
2022-09-21T14:10:07.215Z,25.5
2022-09-21T14:12:06.339Z,25.4
2022-09-21T14:14:08.819Z,25
2022-09-21T14:16:07.977Z,25.4
2022-09-21T14:18:07.089Z,25.9
2022-09-21T14:20:06.327Z,27.4
2022-09-21T14:22:05.375Z,27.5
2022-09-21T14:24:04.528Z,26.9
2022-09-21T14:26:03.675Z,26.9
2022-09-21T14:28:06.164Z,25.6
2022-09-21T14:30:07.305Z,25.2
2022-09-21T14:34:03.686Z,25.2
2022-09-21T14:36:02.779Z,26.1
2022-09-21T14:42:03.624Z,26
2022-09-21T14:44:02.798Z,26.2
2022-09-21T14:46:01.995Z,25.6
2022-09-21T14:48:01.169Z,25.4
2022-09-21T14:50:04.191Z,25.4
2022-09-21T14:53:58.683Z,26.2
2022-09-21T14:58:00.409Z,25.9
2022-09-21T14:59:59.584Z,25.8
2022-09-21T15:01:00.899Z,25.1
2022-09-21T15:03:00.025Z,23.3
2022-09-21T15:11:00.191Z,22.1
2022-09-21T15:16:59.379Z,19.2
2022-09-21T15:26:59.409Z,19.3
2022-09-21T15:29:09.199Z,21.6
2022-09-21T15:30:58.014Z,22.6
2022-09-21T15:32:57.441Z,20.8
2022-09-21T15:38:59.199Z,17.6
2022-09-21T15:42:58.135Z,17.3
2022-09-21T15:44:57.584Z,17.3
2022-09-21T15:46:57.083Z,17.5
2022-09-21T15:49:00.969Z,17.5
2022-09-21T15:50:59.468Z,17.7
2022-09-21T15:52:58.960Z,19.2
2022-09-21T15:54:58.449Z,21.8
2022-09-21T15:57:19.839Z,18.3
2022-09-21T15:59:19.360Z,18
2022-09-21T16:01:18.931Z,17.5
2022-09-21T16:03:21.940Z,19.7
2022-09-21T16:05:21.301Z,20.6
2022-09-21T16:07:20.852Z,20.1
2022-09-21T16:09:20.356Z,18.3
2022-09-21T16:13:19.393Z,16.8
2022-09-21T16:15:18.926Z,16.4
2022-09-21T16:19:21.433Z,15.9
2022-09-21T16:23:20.520Z,15.9
2022-09-21T16:25:20.088Z,16
2022-09-21T16:27:19.635Z,16.1
2022-09-21T16:29:19.186Z,16
2022-09-21T16:31:22.201Z,15.9
2022-09-21T16:33:21.752Z,15.8
2022-09-21T16:35:21.327Z,15.5
2022-09-21T16:37:20.897Z,15.4
2022-09-21T16:39:20.514Z,15.4
2022-09-21T16:41:20.077Z,15.3
2022-09-21T16:43:19.632Z,15.1
2022-09-21T16:45:22.644Z,14.9
2022-09-21T16:49:21.846Z,14.7
2022-09-21T16:50:23.330Z,14.6
2022-09-21T16:52:22.912Z,14.5
2022-09-21T16:54:22.524Z,14.3
2022-09-21T16:56:22.129Z,14.2
2022-09-21T16:58:25.144Z,14
2022-09-21T17:00:24.826Z,14
2022-09-21T17:02:24.481Z,13.9
2022-09-21T17:04:24.001Z,13.7
2022-09-21T17:06:23.647Z,13.6
2022-09-21T17:08:23.283Z,13.4
2022-09-21T17:10:22.910Z,13.3
2022-09-21T17:12:25.964Z,13.2
2022-09-21T17:14:25.613Z,13.1
2022-09-21T17:16:25.315Z,13
2022-09-21T17:18:24.906Z,12.9
2022-09-21T17:20:24.574Z,12.8
2022-09-21T17:22:24.230Z,12.7
2022-09-21T17:24:46.355Z,12.6
2022-09-21T17:26:26.967Z,12.5
2022-09-21T17:28:26.635Z,12.4
2022-09-21T17:30:26.300Z,12.3
2022-09-21T17:32:25.995Z,12.2
2022-09-21T17:34:25.647Z,12.1
2022-09-21T17:36:25.314Z,12
2022-09-21T17:38:24.974Z,11.9
2022-09-21T17:44:27.452Z,11.6
2022-09-21T17:45:28.988Z,11.5
2022-09-21T17:47:28.721Z,11.5
2022-09-21T17:49:28.427Z,11.4
2022-09-21T17:51:28.138Z,11.4
2022-09-21T17:53:31.224Z,11.3
2022-09-21T17:55:30.915Z,11.2
2022-09-21T17:57:30.657Z,11.1
2022-09-21T17:59:30.328Z,11.1
2022-09-21T18:01:30.191Z,11
2022-09-21T18:03:29.777Z,11
2022-09-21T18:05:29.478Z,10.9
2022-09-21T18:07:32.570Z,10.8
2022-09-21T18:09:32.262Z,10.7
2022-09-21T18:11:31.998Z,10.7
2022-09-21T18:13:31.711Z,10.6
2022-09-21T18:15:31.439Z,10.6
2022-09-21T18:17:31.114Z,10.6
2022-09-21T18:19:30.844Z,10.5
2022-09-21T18:21:33.961Z,10.5
2022-09-21T18:23:33.675Z,10.4
2022-09-21T18:25:33.404Z,10.4
2022-09-21T18:27:33.121Z,10.3
2022-09-21T18:29:39.745Z,10.3
2022-09-21T18:31:32.676Z,10.3
2022-09-21T18:33:32.268Z,10.3
2022-09-21T18:35:35.403Z,10.1
2022-09-21T18:37:35.104Z,10.1
2022-09-21T18:39:34.838Z,10
2022-09-21T18:40:36.470Z,10
2022-09-21T18:44:35.878Z,9.9
2022-09-21T18:46:35.600Z,9.9
2022-09-21T18:48:38.722Z,9.9
2022-09-21T18:50:38.443Z,9.9
2022-09-21T18:52:38.171Z,9.8
2022-09-21T18:58:37.401Z,9.7
2022-09-21T19:00:37.140Z,9.7
2022-09-21T19:02:53.566Z,9.6
2022-09-21T19:04:40.004Z,9.6
2022-09-21T19:06:39.739Z,9.5
2022-09-21T19:08:39.494Z,9.5
2022-09-21T19:10:39.241Z,9.4
2022-09-21T19:12:39.007Z,9.4
2022-09-21T19:14:38.734Z,9.4
2022-09-21T19:16:41.914Z,9.4
2022-09-21T19:18:41.618Z,9.3
2022-09-21T19:20:41.375Z,9.3
2022-09-21T19:22:41.106Z,9.3
2022-09-21T19:24:40.874Z,9.2
2022-09-21T19:26:40.615Z,9.2
2022-09-21T19:28:40.424Z,9.1
2022-09-21T19:30:43.615Z,9
2022-09-21T19:32:43.293Z,9
2022-09-21T19:34:43.055Z,9
2022-09-21T19:37:07.608Z,9
2022-09-21T19:39:02.446Z,9
2022-09-21T19:41:02.358Z,9
2022-09-21T19:43:05.396Z,8.8
2022-09-21T19:45:05.194Z,8.8
2022-09-21T19:47:05.019Z,8.9
2022-09-21T19:49:04.811Z,8.8
2022-09-21T19:51:04.579Z,8.7
2022-09-21T19:53:04.455Z,8.7
2022-09-21T19:55:04.323Z,8.7
2022-09-21T19:57:07.634Z,8.7
2022-09-21T19:59:07.422Z,8.6
2022-09-21T20:01:07.416Z,8.5
2022-09-21T20:05:06.950Z,8.5
2022-09-21T20:07:06.706Z,8.5
2022-09-21T20:09:06.640Z,8.5
2022-09-21T20:11:09.878Z,8.5
2022-09-21T20:13:09.780Z,8.4
2022-09-21T20:19:09.214Z,8.4
2022-09-21T20:21:08.994Z,8.4
2022-09-21T20:23:08.819Z,8.3
2022-09-21T20:25:12.184Z,8.2
2022-09-21T20:27:12.040Z,8.2
2022-09-21T20:29:11.854Z,8.2
2022-09-21T20:30:13.417Z,8.1
2022-09-21T20:32:13.198Z,8.1
2022-09-21T20:34:13.033Z,8.1
2022-09-21T20:36:12.879Z,8.2
2022-09-21T20:38:16.178Z,8.1
2022-09-21T20:40:16.118Z,8
2022-09-21T20:42:15.935Z,8
2022-09-21T20:44:15.796Z,8
2022-09-21T20:46:15.701Z,8
2022-09-21T20:48:15.491Z,7.9
2022-09-21T20:50:15.382Z,7.9
2022-09-21T20:54:18.559Z,7.8
2022-09-21T20:56:18.462Z,7.8
2022-09-21T20:58:18.331Z,7.7
2022-09-21T21:00:19.833Z,7.7
2022-09-21T21:02:19.646Z,7.7
2022-09-21T21:04:19.533Z,7.8
2022-09-21T21:06:22.846Z,7.7
2022-09-21T21:08:22.723Z,7.7
2022-09-21T21:10:22.629Z,7.7
2022-09-21T21:14:22.422Z,7.7
2022-09-21T21:16:22.375Z,7.7
2022-09-21T21:18:22.216Z,7.6
2022-09-21T21:20:25.520Z,7.5
2022-09-21T21:22:25.432Z,7.5
2022-09-21T21:24:25.330Z,7.5
2022-09-21T21:27:26.895Z,7.5
2022-09-21T21:31:26.690Z,7.4
2022-09-21T21:33:29.924Z,7.3
2022-09-21T21:41:29.416Z,7.3
2022-09-21T21:43:29.319Z,7.2
2022-09-21T21:45:29.211Z,7.2
2022-09-21T21:47:39.692Z,7.2
2022-09-21T21:49:32.450Z,7.2
2022-09-21T21:51:32.331Z,7.2
2022-09-21T21:53:32.233Z,7.1
2022-09-21T21:55:32.158Z,7.1
2022-09-21T21:57:32.052Z,7.1
2022-09-21T22:01:35.328Z,6.9
2022-09-21T22:03:35.145Z,7
2022-09-21T22:05:34.940Z,7
2022-09-21T22:09:34.778Z,6.9
2022-09-21T22:11:34.684Z,6.9
2022-09-21T22:13:35.136Z,6.8
2022-09-21T22:15:37.904Z,6.9
2022-09-21T22:17:37.764Z,7
2022-09-21T22:19:37.682Z,6.9
2022-09-21T22:20:39.406Z,6.8
2022-09-21T22:24:39.195Z,6.8
2022-09-21T22:26:39.120Z,6.7
2022-09-21T22:28:42.529Z,6.7
2022-09-21T22:30:42.442Z,6.7
2022-09-21T22:32:42.361Z,6.7
2022-09-21T22:34:42.278Z,6.6
2022-09-21T22:36:42.210Z,6.7
2022-09-21T22:38:43.191Z,6.6
2022-09-21T22:42:45.438Z,6.5
2022-09-21T22:44:45.282Z,6.5
2022-09-21T22:46:45.217Z,6.5
2022-09-21T22:48:45.117Z,6.6
2022-09-21T22:50:45.034Z,6.6
2022-09-21T22:52:44.973Z,6.5
2022-09-21T22:54:44.906Z,6.5
2022-09-21T22:56:48.297Z,6.5
2022-09-21T22:58:48.196Z,6.4
2022-09-21T23:00:48.217Z,6.4
2022-09-21T23:02:48.051Z,6.4
2022-09-21T23:04:47.984Z,6.3
2022-09-21T23:06:47.929Z,6.3
2022-09-21T23:08:47.863Z,6.3
2022-09-21T23:10:51.273Z,6.2
2022-09-21T23:12:51.208Z,6.2
2022-09-21T23:14:51.129Z,6.2
2022-09-21T23:23:14.822Z,6
2022-09-21T23:25:14.740Z,6.1
2022-09-21T23:27:14.690Z,6.1
2022-09-21T23:29:14.592Z,6.1
2022-09-21T23:31:14.583Z,6
2022-09-21T23:35:14.392Z,5.9
2022-09-21T23:43:17.605Z,6
2022-09-21T23:49:17.395Z,5.8
2022-09-21T23:51:20.818Z,5.8
2022-09-21T23:57:20.639Z,5.7
2022-09-21T23:59:20.577Z,5.7
